Terminal Aerodrome Forecast
Issued by NWS

Home | Current Version | Previous Version | Text Only | Print | Product List | Glossary Off
Versions: 1 2 3 4 5 6 7 8 9 10 11 12 13 14

018
FTUS43 KBIS 212331
TAFMOT
TAF
KMOT 212331Z 2200/2224 16020G29KT P6SM SKC
     FM220200 17013G23KT P6SM FEW250
     FM221000 21011KT P6SM SCT200
     FM221400 24008KT P6SM SCT200=

USA.gov is the U.S. government's official web portal to all federal, state and local government web resources and services.